Time;durP1;ratioP1;P1;durP2;ratioP2;P2;SDS_P1;SDS_P2;PMS_P1;PMS_P2;Temp;Humidity;BMP_temperature;BMP_pressure;BME280_temperature;BME280_humidity;BME280_pressure;Samples;Min_cycle;Max_cycle;Signal;HPM_P1;HPM_P2
2022/07/13 00:03:34;;;;;;;1.47;0.90;;;18.50;99.90;;;;;;20963436;22;20045;-78
2022/07/13 00:13:34;;;;;;;5.40;1.13;;;18.60;99.90;;;;;;21002480;28;20032;-78
2022/07/13 00:23:35;;;;;;;2.33;1.23;;;18.30;99.90;;;;;;20985777;28;20060;-78
2022/07/13 00:33:36;;;;;;;3.90;1.07;;;17.60;99.90;;;;;;21007281;28;20038;-77
2022/07/13 00:43:37;;;;;;;3.57;1.10;;;17.70;99.90;;;;;;20987913;28;20120;-79
2022/07/13 00:53:39;;;;;;;0.80;0.80;;;17.60;99.90;;;;;;20982184;28;20091;-78
2022/07/13 01:03:40;;;;;;;4.22;0.85;;;17.60;99.90;;;;;;20999257;28;20036;-78
2022/07/13 01:13:41;;;;;;;1.40;0.93;;;17.60;99.90;;;;;;20982678;28;20055;-78
2022/07/13 01:23:42;;;;;;;3.33;0.90;;;17.60;99.90;;;;;;20981697;28;20040;-77
2022/07/13 01:33:42;;;;;;;1.00;0.80;;;17.60;99.90;;;;;;20999086;28;20041;-78
2022/07/13 01:43:44;;;;;;;1.33;1.07;;;17.40;99.90;;;;;;20979860;28;20060;-78
2022/07/13 01:53:45;;;;;;;10.70;1.00;;;17.40;99.90;;;;;;20990329;28;20041;-77
2022/07/13 02:03:46;;;;;;;2.23;0.83;;;17.40;99.90;;;;;;21018317;28;20036;-78
2022/07/13 02:13:47;;;;;;;1.80;0.83;;;17.10;99.90;;;;;;21007988;28;20601;-78
2022/07/13 02:23:48;;;;;;;2.00;0.90;;;17.00;99.90;;;;;;20989022;28;20036;-78
2022/07/13 02:33:52;;;;;;;1.20;0.75;;;16.70;99.90;;;;;;20975127;28;20139;-78
2022/07/13 02:43:54;;;;;;;1.05;0.65;;;17.20;99.90;;;;;;21008293;28;20097;-78
2022/07/13 02:53:55;;;;;;;0.93;0.60;;;16.90;99.90;;;;;;20987401;28;20036;-77
2022/07/13 03:03:58;;;;;;;1.73;0.75;;;16.60;99.90;;;;;;20982653;28;20043;-77
2022/07/13 03:14:01;;;;;;;1.33;0.90;;;16.60;99.90;;;;;;20983379;28;20044;-77
2022/07/13 03:24:04;;;;;;;2.70;0.90;;;16.60;99.90;;;;;;20986529;28;20032;-78
2022/07/13 03:34:05;;;;;;;1.10;0.90;;;16.10;99.90;;;;;;20993154;28;20041;-78
2022/07/13 03:44:07;;;;;;;1.58;0.70;;;15.90;99.90;;;;;;20976289;28;20040;-78
2022/07/13 03:54:09;;;;;;;1.30;0.95;;;15.90;99.90;;;;;;20986392;28;20075;-79
2022/07/13 04:04:10;;;;;;;2.60;0.90;;;16.00;99.90;;;;;;20998184;28;20036;-79
2022/07/13 04:14:14;;;;;;;2.65;0.73;;;15.90;99.90;;;;;;20979228;28;20504;-80
2022/07/13 04:24:15;;;;;;;0.57;0.57;;;15.90;99.90;;;;;;20999795;28;20036;-79
2022/07/13 04:34:17;;;;;;;2.53;0.82;;;15.80;99.90;;;;;;21008439;28;20408;-78
2022/07/13 04:44:19;;;;;;;2.15;1.10;;;16.00;99.90;;;;;;21021448;28;20062;-79
2022/07/13 04:54:21;;;;;;;5.35;1.23;;;15.80;99.90;;;;;;21000646;28;20397;-80
2022/07/13 05:04:24;;;;;;;2.65;1.08;;;16.20;99.90;;;;;;21002138;28;20044;-79
2022/07/13 05:14:25;;;;;;;1.70;1.02;;;16.50;99.90;;;;;;20986371;28;20504;-80
2022/07/13 05:24:27;;;;;;;1.27;1.08;;;17.00;99.90;;;;;;20987208;28;20036;-75
2022/07/13 05:34:28;;;;;;;3.33;1.00;;;17.20;99.90;;;;;;20985447;28;20063;-75
2022/07/13 05:44:29;;;;;;;5.50;1.70;;;17.40;99.90;;;;;;20983948;28;20032;-76
2022/07/13 05:54:31;;;;;;;2.08;1.20;;;17.70;99.90;;;;;;20984131;28;20041;-77
2022/07/13 06:04:32;;;;;;;1.47;1.10;;;17.60;99.90;;;;;;20987814;22;20055;-76
2022/07/13 06:14:33;;;;;;;0.83;0.80;;;18.10;99.90;;;;;;20962868;28;20087;-76
2022/07/13 06:24:34;;;;;;;1.67;0.97;;;18.80;99.90;;;;;;20932444;28;20079;-78
2022/07/13 06:34:34;;;;;;;3.30;0.90;;;19.40;99.90;;;;;;20910374;28;20128;-78
2022/07/13 06:44:35;;;;;;;1.20;0.93;;;19.90;99.90;;;;;;20922721;28;20037;-78
2022/07/13 06:54:36;;;;;;;1.70;0.90;;;20.60;99.90;;;;;;20958882;28;20037;-78
2022/07/13 07:04:37;;;;;;;11.93;4.40;;;20.90;99.90;;;;;;20921687;28;20044;-78
2022/07/13 07:14:38;;;;;;;7.57;1.00;;;21.50;99.90;;;;;;20928324;28;20037;-78
2022/07/13 07:24:42;;;;;;;2.67;0.60;;;22.00;99.90;;;;;;20949024;28;20040;-78
2022/07/13 07:34:43;;;;;;;2.03;1.20;;;22.20;99.90;;;;;;20996503;28;20068;-77
2022/07/13 07:44:44;;;;;;;1.70;0.70;;;23.30;99.90;;;;;;21003573;28;20039;-77
2022/07/13 07:54:46;;;;;;;;;;;23.70;99.90;;;;;;21011242;28;20040;-79
2022/07/13 08:04:47;;;;;;;7.47;0.70;;;23.70;99.90;;;;;;21010009;28;19916;-77
2022/07/13 08:14:48;;;;;;;5.88;0.90;;;24.80;99.90;;;;;;21003128;28;20084;-79
2022/07/13 08:24:48;;;;;;;;;;;25.20;99.90;;;;;;20987609;28;20067;-79
2022/07/13 08:45:09;;;;;;;0.95;0.65;;;26.50;99.90;;;;;;21007991;28;20043;-79
2022/07/13 08:55:10;;;;;;;1.13;0.80;;;25.90;99.90;;;;;;21007912;28;20107;-78
2022/07/13 09:05:45;;;;;;;0.70;0.50;;;27.50;99.90;;;;;;21005033;28;20047;-79
2022/07/13 09:15:46;;;;;;;0.63;0.50;;;28.00;99.90;;;;;;21025299;28;20100;-79
2022/07/13 09:25:47;;;;;;;0.60;0.47;;;28.80;99.90;;;;;;21023678;28;20047;-79
2022/07/13 09:35:51;;;;;;;0.45;0.30;;;29.40;99.90;;;;;;21019580;28;20051;-79
2022/07/13 09:46:10;;;;;;;0.47;0.38;;;29.70;99.90;;;;;;20993158;28;20085;-80
2022/07/13 09:56:12;;;;;;;0.55;0.40;;;30.50;97.20;;;;;;20975370;28;20044;-79
2022/07/13 10:06:13;;;;;;;0.60;0.40;;;30.10;97.90;;;;;;21008432;28;20493;-79
2022/07/13 10:16:14;;;;;;;1.13;0.35;;;31.40;95.80;;;;;;21008790;28;20500;-79
2022/07/13 10:26:24;;;;;;;1.05;0.43;;;31.90;91.80;;;;;;21010298;28;20072;-79
2022/07/13 10:36:44;;;;;;;;;;;31.70;92.10;;;;;;20993536;28;20043;-79
2022/07/13 10:46:47;;;;;;;0.85;0.30;;;32.40;90.90;;;;;;20974600;28;19908;-79
2022/07/13 10:57:11;;;;;;;0.85;0.30;;;32.60;90.20;;;;;;20989528;28;20044;-79
2022/07/13 11:07:12;;;;;;;2.20;0.32;;;31.90;91.10;;;;;;21004553;28;20036;-78
2022/07/13 11:17:21;;;;;;;2.65;0.38;;;32.20;87.00;;;;;;21003685;28;20044;-78
2022/07/13 11:27:29;;;;;;;1.30;0.47;;;32.30;81.90;;;;;;21000504;28;20036;-79
2022/07/13 11:37:31;;;;;;;0.60;0.30;;;32.00;90.20;;;;;;21006117;28;20127;-80
2022/07/13 11:47:32;;;;;;;1.50;0.30;;;32.80;82.80;;;;;;21010351;28;20046;-79
2022/07/13 11:57:33;;;;;;;5.65;0.22;;;33.70;78.80;;;;;;20990879;28;20402;-80
2022/07/13 12:07:34;;;;;;;0.98;0.60;;;33.70;81.60;;;;;;21043930;22;20063;-79
2022/07/13 12:17:49;;;;;;;0.80;0.30;;;34.40;79.30;;;;;;20948170;28;20045;-79
2022/07/13 12:27:55;;;;;;;1.48;0.30;;;33.70;73.40;;;;;;20941317;28;20068;-80
2022/07/13 12:37:57;;;;;;;0.40;0.40;;;33.90;76.90;;;;;;20957831;28;20048;-80
2022/07/13 12:47:58;;;;;;;3.83;1.48;;;33.80;75.10;;;;;;20971324;28;20052;-79
2022/07/13 12:57:59;;;;;;;0.50;0.30;;;33.80;77.20;;;;;;20960960;28;20041;-79
2022/07/13 13:08:00;;;;;;;0.90;0.30;;;32.80;72.10;;;;;;20947882;28;20049;-79
2022/07/13 13:18:01;;;;;;;1.38;0.30;;;33.60;74.90;;;;;;20924279;28;20041;-80
2022/07/13 13:28:02;;;;;;;0.25;0.10;;;33.00;67.40;;;;;;20946720;28;20041;-79
2022/07/13 13:38:03;;;;;;;0.55;0.10;;;34.50;68.80;;;;;;20952331;28;20075;-78
2022/07/13 13:48:04;;;;;;;0.55;0.30;;;33.90;68.40;;;;;;20936193;28;20142;-79
2022/07/13 13:58:05;;;;;;;1.60;0.28;;;33.90;65.10;;;;;;20924919;28;20654;-79
2022/07/13 14:08:06;;;;;;;3.85;0.20;;;34.40;67.40;;;;;;20931454;28;20047;-79
2022/07/13 14:18:07;;;;;;;0.20;0.20;;;33.70;63.20;;;;;;20909952;28;20041;-77
2022/07/13 14:28:07;;;;;;;0.17;0.10;;;33.70;64.30;;;;;;20910312;28;20274;-78
2022/07/13 14:38:10;;;;;;;0.43;0.20;;;34.60;61.60;;;;;;20925786;28;20303;-79
2022/07/13 14:48:11;;;;;;;0.60;0.20;;;33.80;60.50;;;;;;20894484;28;20049;-80
2022/07/13 14:58:12;;;;;;;2.17;0.20;;;33.90;59.80;;;;;;20897881;28;20098;-79
2022/07/13 15:08:13;;;;;;;3.30;0.17;;;34.20;60.30;;;;;;20900341;28;20840;-79
2022/07/13 15:18:13;;;;;;;0.95;0.20;;;33.70;61.70;;;;;;20911632;28;20397;-78
2022/07/13 15:28:14;;;;;;;0.10;0.10;;;34.10;58.60;;;;;;20918536;28;20037;-79
2022/07/13 15:38:15;;;;;;;0.20;0.10;;;33.80;60.50;;;;;;20931242;28;20292;-76
2022/07/13 15:48:16;;;;;;;2.10;0.40;;;33.30;59.60;;;;;;20913256;28;20976;-79
2022/07/13 15:58:17;;;;;;;0.63;0.30;;;32.90;60.00;;;;;;20895736;28;20519;-79
2022/07/13 16:08:18;;;;;;;0.68;0.10;;;32.50;62.40;;;;;;20918312;28;20044;-79
2022/07/13 16:18:18;;;;;;;0.77;0.22;;;32.50;60.60;;;;;;20941552;28;20039;-79
2022/07/13 16:28:20;;;;;;;2.92;0.38;;;32.30;61.70;;;;;;20939539;28;20115;-79
2022/07/13 16:38:21;;;;;;;0.75;0.30;;;32.40;67.90;;;;;;20930297;28;20600;-79
2022/07/13 16:48:22;;;;;;;0.90;0.20;;;31.90;71.70;;;;;;20930057;28;20049;-77
2022/07/13 16:58:23;;;;;;;1.73;0.40;;;31.90;70.70;;;;;;20904436;28;20037;-79
2022/07/13 17:08:24;;;;;;;0.28;0.20;;;31.70;73.00;;;;;;20885856;28;20425;-78
2022/07/13 17:18:57;;;;;;;0.77;0.38;;;31.00;77.80;;;;;;20866012;28;20037;-79
2022/07/13 17:28:45;;;;;;;;;;;30.30;77.60;;;;;;20857032;28;20064;-79
2022/07/13 17:38:46;;;;;;;4.70;0.60;;;30.00;80.60;;;;;;20876443;28;19920;-78
2022/07/13 17:48:47;;;;;;;1.15;0.60;;;29.40;84.70;;;;;;20878955;28;20041;-78
2022/07/13 17:58:48;;;;;;;1.00;0.32;;;28.90;89.60;;;;;;20890469;28;20436;-78
2022/07/13 18:08:50;;;;;;;0.90;0.40;;;28.30;90.60;;;;;;20895940;28;20065;-78
2022/07/13 18:18:50;;;;;;;1.70;0.30;;;28.30;88.90;;;;;;20863753;28;20132;-78
2022/07/13 18:28:52;;;;;;;3.10;1.10;;;28.00;90.30;;;;;;20880995;28;20040;-78
2022/07/13 18:38:53;;;;;;;0.88;0.65;;;27.80;92.10;;;;;;20903030;28;20076;-79
2022/07/13 18:48:54;;;;;;;5.20;0.70;;;27.90;92.00;;;;;;20862120;28;20561;-78
2022/07/13 18:58:54;;;;;;;1.38;0.50;;;27.60;91.90;;;;;;20879252;28;20072;-78
2022/07/13 19:08:55;;;;;;;1.25;0.40;;;26.50;92.90;;;;;;20891943;28;20052;-78
2022/07/13 19:18:56;;;;;;;2.30;0.55;;;25.90;94.10;;;;;;20891066;28;20041;-78
2022/07/13 19:28:57;;;;;;;1.23;0.30;;;25.30;95.50;;;;;;20875161;28;20041;-78
2022/07/13 19:38:58;;;;;;;;;;;24.90;95.50;;;;;;20890828;28;20081;-78
2022/07/13 19:48:59;;;;;;;1.10;0.40;;;24.70;94.40;;;;;;20870782;28;19933;-78
2022/07/13 19:59:00;;;;;;;;;;;24.50;95.00;;;;;;20877287;28;20033;-78
2022/07/13 20:09:01;;;;;;;5.25;0.60;;;24.30;95.90;;;;;;20870280;28;19913;-78
2022/07/13 20:19:02;;;;;;;4.37;0.40;;;24.00;96.40;;;;;;20872350;28;20053;-78
2022/07/13 20:29:03;;;;;;;1.08;0.60;;;23.80;96.10;;;;;;20900865;28;20033;-79
2022/07/13 20:39:04;;;;;;;1.27;0.50;;;24.00;95.10;;;;;;20951758;28;20032;-79
2022/07/13 20:49:05;;;;;;;1.98;0.50;;;24.00;96.00;;;;;;20946449;28;20033;-77
2022/07/13 20:59:12;;;;;;;7.47;0.65;;;23.90;96.50;;;;;;20956907;28;20128;-80
2022/07/13 21:09:13;;;;;;;0.52;0.35;;;23.60;97.00;;;;;;20914343;28;20049;-79
2022/07/13 21:19:13;;;;;;;2.10;0.50;;;23.10;97.80;;;;;;20884875;28;20045;-79
2022/07/13 21:29:14;;;;;;;2.50;0.50;;;22.60;98.80;;;;;;20893678;28;20033;-79
2022/07/13 21:39:15;;;;;;;4.53;0.60;;;22.40;99.90;;;;;;20901613;28;20045;-78
2022/07/13 21:49:16;;;;;;;1.43;0.60;;;22.20;99.90;;;;;;20878893;28;20039;-79
2022/07/13 21:59:17;;;;;;;1.80;0.60;;;22.40;99.90;;;;;;20868107;28;20076;-78
2022/07/13 22:09:18;;;;;;;2.10;0.70;;;22.00;99.90;;;;;;20861794;28;20037;-79
2022/07/13 22:19:58;;;;;;;6.22;0.75;;;22.20;99.90;;;;;;20897381;28;20080;-79
2022/07/13 22:30:36;;;;;;;1.40;0.63;;;21.80;99.90;;;;;;20884289;28;20100;-79
2022/07/13 22:41:14;;;;;;;3.45;1.20;;;21.70;99.90;;;;;;20877533;28;20038;-76
2022/07/13 22:51:52;;;;;;;2.50;0.70;;;21.60;99.90;;;;;;20836027;28;20045;-77
2022/07/13 23:02:31;;;;;;;4.55;0.60;;;21.50;99.90;;;;;;20831290;28;20052;-76
2022/07/13 23:13:09;;;;;;;1.08;0.60;;;21.60;99.90;;;;;;20846926;28;20037;-76
2022/07/13 23:23:47;;;;;;;2.40;0.52;;;21.30;99.90;;;;;;20830681;28;20068;-75
2022/07/13 23:33:48;;;;;;;3.15;0.60;;;21.00;99.90;;;;;;20852079;28;20038;-76
2022/07/13 23:43:49;;;;;;;1.00;0.60;;;21.40;99.90;;;;;;20845184;28;20048;-76
2022/07/13 23:53:50;;;;;;;0.82;0.47;;;21.40;99.90;;;;;;20828488;28;20041;-76
